Terminal Aerodrome Forecast
Issued by NWS St Louis, MO

Home | Current Version | Previous Version | Text Only | Print | Product List | Glossary On
Versions: 1 2 3 4 5 6 7 8 9 10 11 12 13 14 15 16 17 18 19 20 21 22 23 24 25 26 27 28
474
FTUS43 KLSX 161120
TAFSTL
TAF
KSTL 161120Z 1612/1718 21012KT P6SM SKC WS015/25035KT
     FM161500 22011G22KT P6SM SKC
     FM162200 21008KT P6SM SKC
     FM171200 19004KT P6SM -RA OVC060=

USA.gov is the U.S. government's official web portal to all federal, state and local government web resources and services.